KMHL

Marshall Memorial Municipal Airport

Marshall, Missouri, USA
METAR KMHL 151935Z AUTO 01004KT 1SM -SN BKN002 M09/M11 A3005 RMK AO2 P0001
Observed Flight Rules
Feb-15 @ 19:35 UTC (21 minutes ago) Instrument Flight Rules
Wind Visibility Clouds Conditions
10° at 4 knots 1 miles
  • Broken at 200' AGL
  • Light Snow
Temperatures Readings Precipitation
Current -9°C / 16°F
Dewpoint -11°C / 12°F
Humidity 86%
Altimeter 30.05" Hg
Pressure 1017.62 hPa
Elevation 237
Current Rain 0.01
METAR KMHL 151935Z AUTO 01004KT 1SM -SN BKN002 M09/M11 A3005 RMK AO2 P0001
Observed Flight Rules
Feb-15 @ 19:35 UTC
(21 minutes ago)
LIFR
Wind Visibility
10° at 4 knots 1 miles
Clouds
  • Broken at 200' AGL
Conditions
  • Light Snow
Temperature Dewpoint
-9°C / 16°F -11°C / 12°F
Humidity Altimeter Pressure
86% 30.05" Hg 1017.62 hPa
Current Rain
0.01